Time;durP1;ratioP1;P1;durP2;ratioP2;P2;SDS_P1;SDS_P2;PMS_P1;PMS_P2;Temp;Humidity;BMP_temperature;BMP_pressure;BME280_temperature;BME280_humidity;BME280_pressure;Samples;Min_cycle;Max_cycle;Signal;HPM_P1;HPM_P2
2023/01/24 00:02:06;;;;;;;34.55;15.68;;;;;;;-144.47;100.00;53136.16;5030292;28;20094;-65
2023/01/24 00:04:31;;;;;;;38.38;17.98;;;;;;;-144.47;100.00;53118.28;5029669;28;20025;-68
2023/01/24 00:06:56;;;;;;;45.15;18.35;;;;;;;-144.47;100.00;53120.25;5029174;28;20033;-67
2023/01/24 00:09:22;;;;;;;39.92;17.77;;;;;;;-144.47;100.00;53118.28;5028901;28;20029;-66
2023/01/24 00:11:47;;;;;;;38.20;16.52;;;;;;;-144.47;100.00;53156.00;5029450;28;20029;-64
2023/01/24 00:14:13;;;;;;;43.28;16.83;;;;;;;-144.47;100.00;53128.22;5029232;28;20021;-67
2023/01/24 00:16:38;;;;;;;40.17;16.67;;;;;;;-144.47;100.00;53171.91;5029418;28;20072;-64
2023/01/24 00:19:03;;;;;;;34.53;15.40;;;;;;;-144.47;100.00;53146.09;5029786;28;20049;-66
2023/01/24 00:21:29;;;;;;;41.33;17.90;;;;;;;-144.47;100.00;53154.03;5029960;28;20083;-65
2023/01/24 00:23:54;;;;;;;37.42;15.98;;;;;;;-144.47;100.00;53120.25;5029660;28;20021;-66
2023/01/24 00:26:22;;;;;;;46.40;17.58;;;;;;;-144.47;100.00;53120.25;5029505;28;20107;-64
2023/01/24 00:28:49;;;;;;;40.92;17.77;;;;;;;-144.47;100.00;53158.00;5029069;28;20029;-62
2023/01/24 00:31:15;;;;;;;35.70;16.15;;;;;;;-144.47;100.00;53130.19;5029695;28;20077;-67
2023/01/24 00:33:40;;;;;;;36.63;16.42;;;;;;;-144.47;100.00;53134.16;5029295;28;20026;-65
2023/01/24 00:36:06;;;;;;;39.30;16.50;;;;;;;-144.47;100.00;53130.19;5029387;28;20676;-65
2023/01/24 00:38:32;;;;;;;42.90;15.85;;;;;;;-144.47;100.00;53148.06;5029297;28;20017;-67
2023/01/24 00:40:58;;;;;;;44.20;18.13;;;;;;;-144.47;100.00;53160.00;5029433;28;20037;-63
2023/01/24 00:43:23;;;;;;;34.35;15.65;;;;;;;-144.47;100.00;53114.31;5029166;28;20026;-67
2023/01/24 00:45:49;;;;;;;39.40;16.42;;;;;;;-144.47;100.00;53128.22;5029433;28;20103;-66
2023/01/24 00:48:14;;;;;;;38.67;15.60;;;;;;;-144.47;100.00;53158.00;5021090;28;20030;-67
2023/01/24 00:50:40;;;;;;;43.38;16.88;;;;;;;-144.47;100.00;53136.16;5024918;28;20052;-63
2023/01/24 00:53:06;;;;;;;31.92;15.23;;;;;;;-144.47;100.00;53140.13;5028443;28;20084;-66
2023/01/24 00:55:32;;;;;;;45.60;20.63;;;;;;;-144.47;100.00;53136.16;5019766;28;20028;-67
2023/01/24 00:57:58;;;;;;;41.60;16.77;;;;;;;-144.47;100.00;53161.97;5027654;28;20079;-64
2023/01/24 01:00:23;;;;;;;40.13;17.67;;;;;;;-144.47;100.00;53158.00;5032174;28;20526;-66
2023/01/24 01:02:50;;;;;;;43.88;17.77;;;;;;;-144.47;100.00;53130.19;5031022;28;20103;-63
2023/01/24 01:05:16;;;;;;;42.25;17.67;;;;;;;-144.47;100.00;53165.94;5026590;28;20033;-67
2023/01/24 01:07:41;;;;;;;41.33;18.73;;;;;;;-144.47;100.00;53122.25;5028659;28;20013;-67
2023/01/24 01:10:08;;;;;;;41.03;18.98;;;;;;;-144.47;100.00;53138.13;5027074;28;20033;-63
2023/01/24 01:12:33;;;;;;;35.65;15.45;;;;;;;-144.47;100.00;53128.22;5026562;28;20466;-66
2023/01/24 01:14:58;;;;;;;52.78;22.30;;;;;;;-144.47;100.00;53144.09;5028101;28;20021;-64
2023/01/24 01:17:24;;;;;;;51.88;21.73;;;;;;;-144.47;100.00;53160.00;5028806;28;20025;-66
2023/01/24 01:19:53;;;;;;;47.53;20.58;;;;;;;-144.47;100.00;53126.22;5028424;28;20033;-65
2023/01/24 01:22:18;;;;;;;;;;;;;;;-144.47;100.00;53136.16;5028419;28;20030;-67
2023/01/24 01:24:44;;;;;;;47.63;18.48;;;;;;;-144.47;100.00;53144.09;5028172;28;19935;-66
2023/01/24 01:27:09;;;;;;;39.65;17.02;;;;;;;-144.47;100.00;53150.06;5032508;28;20026;-64
2023/01/24 01:29:34;;;;;;;39.63;17.70;;;;;;;-144.47;100.00;53130.19;5032038;28;20115;-66
2023/01/24 01:32:00;;;;;;;40.47;15.70;;;;;;;-144.47;100.00;53136.16;5032564;28;20051;-66
2023/01/24 01:34:25;;;;;;;38.28;15.93;;;;;;;-144.47;100.00;53142.09;5030718;28;20021;-66
2023/01/24 01:36:50;;;;;;;36.47;16.35;;;;;;;-144.47;100.00;53130.19;5031793;28;20591;-67
2023/01/24 01:39:16;;;;;;;37.67;16.42;;;;;;;-144.47;100.00;53120.25;5031895;28;20097;-64
2023/01/24 01:41:41;;;;;;;41.05;15.15;;;;;;;-144.47;100.00;53132.19;5031432;28;20519;-67
2023/01/24 01:44:41;;;;;;;41.47;16.05;;;;;;;-144.47;100.00;53144.09;5032022;28;20610;-65
2023/01/24 01:47:15;;;;;;;38.50;16.60;;;;;;;-144.47;100.00;53120.25;5031578;28;20030;-66
2023/01/24 01:49:46;;;;;;;31.85;14.63;;;;;;;-144.47;100.00;53148.06;5019977;28;20030;-66
2023/01/24 01:52:12;;;;;;;40.95;17.13;;;;;;;-144.47;100.00;53142.09;5032007;28;20492;-66
2023/01/24 01:54:44;;;;;;;34.00;14.82;;;;;;;-144.47;100.00;53136.16;5024886;28;20120;-67
2023/01/24 01:57:20;;;;;;;36.85;15.75;;;;;;;-144.47;100.00;53126.22;5030658;28;20017;-67
2023/01/24 01:59:54;;;;;;;37.80;15.43;;;;;;;-144.47;100.00;53146.09;5030864;28;20646;-66
2023/01/24 02:02:22;;;;;;;43.35;16.92;;;;;;;-144.47;100.00;53124.22;5030350;28;20410;-66
2023/01/24 02:04:52;;;;;;;40.58;16.85;;;;;;;-144.47;100.00;53156.00;5029952;28;20057;-63
2023/01/24 02:07:31;;;;;;;44.03;17.80;;;;;;;-144.47;100.00;53142.09;5031140;28;20030;-67
2023/01/24 02:09:58;;;;;;;38.33;16.42;;;;;;;-144.47;100.00;53130.19;5031827;28;20021;-68
2023/01/24 02:12:27;;;;;;;39.33;16.50;;;;;;;-144.47;100.00;53114.31;5031776;28;20025;-67
2023/01/24 02:17:41;;;;;;;41.20;17.98;;;;;;;-144.47;100.00;53110.31;5031584;28;20036;-67
2023/01/24 02:20:09;;;;;;;41.85;18.45;;;;;;;-144.47;100.00;53130.19;5031373;28;20040;-66
2023/01/24 02:22:57;;;;;;;39.37;17.63;;;;;;;-144.47;100.00;53163.97;5031938;28;20502;-67
2023/01/24 02:25:35;;;;;;;36.35;15.60;;;;;;;-144.47;100.00;53160.00;5021162;28;20029;-67
2023/01/24 02:28:02;;;;;;;36.75;16.20;;;;;;;-144.47;100.00;53154.03;5030719;28;20036;-66
2023/01/24 02:30:28;;;;;;;34.97;14.95;;;;;;;-144.47;100.00;53148.06;5031098;28;20052;-67
2023/01/24 02:32:53;;;;;;;35.20;15.57;;;;;;;-144.47;100.00;53102.38;5031633;28;20498;-67
2023/01/24 02:35:24;;;;;;;40.03;16.38;;;;;;;-144.47;100.00;53126.22;5031293;28;20095;-65
2023/01/24 02:37:50;;;;;;;37.95;15.52;;;;;;;-144.47;100.00;53138.13;5029652;28;20022;-65
2023/01/24 02:40:15;;;;;;;39.60;16.55;;;;;;;-144.47;100.00;53136.16;5031298;28;20032;-67
2023/01/24 02:42:41;;;;;;;34.30;16.75;;;;;;;-144.47;100.00;53161.97;5029618;28;20029;-66
2023/01/24 02:45:23;;;;;;;38.00;16.70;;;;;;;-144.47;100.00;53112.31;5030013;28;20116;-63
2023/01/24 02:47:52;;;;;;;33.22;15.63;;;;;;;-144.47;100.00;53165.94;5014017;28;20030;-65
2023/01/24 02:50:18;;;;;;;;;;;;;;;-144.47;100.00;53152.03;5028596;28;20021;-67
2023/01/24 02:55:28;;;;;;;43.50;15.43;;;;;;;-144.47;100.00;53128.22;5027171;28;20040;-67
2023/01/24 02:58:07;;;;;;;34.80;13.82;;;;;;;-144.47;100.00;53148.06;5028105;28;20017;-63
2023/01/24 03:00:34;;;;;;;41.33;16.67;;;;;;;-144.47;100.00;53161.97;5028744;28;20490;-66
2023/01/24 03:02:59;;;;;;;38.83;15.43;;;;;;;-144.47;100.00;53142.09;5030214;28;20025;-65
2023/01/24 03:05:25;;;;;;;29.65;14.43;;;;;;;-144.47;100.00;53148.06;5029737;28;20432;-64
2023/01/24 03:07:50;;;;;;;37.00;14.60;;;;;;;-144.47;100.00;53154.03;5030509;28;20022;-66
2023/01/24 03:10:18;;;;;;;29.83;13.63;;;;;;;-144.47;100.00;53138.13;5030365;28;20574;-64
2023/01/24 03:34:48;;;;;;;26.30;13.68;;;;;;;-144.47;100.00;53150.06;5030127;28;20040;-66
2023/01/24 03:37:15;;;;;;;31.90;13.57;;;;;;;-144.47;100.00;53130.19;5029879;28;20026;-64
2023/01/24 03:39:59;;;;;;;28.15;12.20;;;;;;;-144.47;100.00;53158.00;5030089;28;20039;-65
2023/01/24 03:42:27;;;;;;;33.78;13.88;;;;;;;-144.47;100.00;53148.06;5029914;28;20021;-67
2023/01/24 03:44:53;;;;;;;28.90;13.38;;;;;;;-144.47;100.00;53132.19;5027750;28;20025;-67
2023/01/24 03:47:19;;;;;;;25.65;12.13;;;;;;;-144.47;100.00;53122.25;5028852;28;20031;-68
2023/01/24 03:52:28;;;;;;;31.52;13.73;;;;;;;-144.47;100.00;53118.28;5029649;28;20415;-68
2023/01/24 03:54:59;;;;;;;27.35;13.70;;;;;;;-144.47;100.00;53142.09;5029563;28;20029;-66
2023/01/24 03:57:25;;;;;;;28.45;13.77;;;;;;;-144.47;100.00;53142.09;5023366;28;20503;-67
2023/01/24 03:59:51;;;;;;;30.30;13.13;;;;;;;-144.47;100.00;53156.00;5028914;28;20150;-67
2023/01/24 04:02:17;;;;;;;30.70;12.85;;;;;;;-144.47;100.00;53148.06;5028121;28;20112;-66
2023/01/24 04:07:27;;;;;;;30.83;11.95;;;;;;;-144.47;100.00;53118.28;5028956;28;20033;-68
2023/01/24 04:09:52;;;;;;;30.00;13.65;;;;;;;-144.47;100.00;53161.97;5029891;28;20055;-63
2023/01/24 04:12:18;;;;;;;25.30;12.23;;;;;;;-144.47;100.00;53163.97;5028094;28;20483;-66
2023/01/24 04:14:43;;;;;;;25.60;11.95;;;;;;;-144.47;100.00;53165.94;5027642;28;20479;-67
2023/01/24 04:17:09;;;;;;;27.98;13.15;;;;;;;-144.47;100.00;53160.00;5029221;28;20167;-67
2023/01/24 04:19:34;;;;;;;31.73;13.95;;;;;;;-144.47;100.00;53144.09;5029323;28;20392;-65
2023/01/24 04:22:00;;;;;;;25.23;12.02;;;;;;;-144.47;100.00;53146.09;5029323;28;20033;-67
2023/01/24 04:24:25;;;;;;;25.70;11.93;;;;;;;-144.47;100.00;53154.03;5029528;28;20387;-64
2023/01/24 04:26:50;;;;;;;27.40;12.25;;;;;;;-144.47;100.00;53124.22;5029005;28;20021;-67
2023/01/24 04:29:16;;;;;;;31.33;13.60;;;;;;;-144.47;100.00;53136.16;5029078;28;20053;-69
2023/01/24 04:31:41;;;;;;;24.40;11.80;;;;;;;-144.47;100.00;53150.06;5029132;28;20022;-64
2023/01/24 04:34:06;;;;;;;27.13;11.40;;;;;;;-144.47;100.00;53146.09;5028851;28;20033;-67
2023/01/24 04:36:32;;;;;;;23.65;12.15;;;;;;;-144.47;100.00;53126.22;5028281;28;20041;-65
2023/01/24 04:38:57;;;;;;;26.45;12.23;;;;;;;-144.47;100.00;53148.06;5029410;28;20033;-67
2023/01/24 04:41:23;;;;;;;28.55;12.57;;;;;;;-144.47;100.00;53142.09;5029319;28;20032;-63
2023/01/24 04:43:48;;;;;;;27.88;11.98;;;;;;;-144.47;100.00;53124.22;5028813;28;20104;-68
2023/01/24 04:46:14;;;;;;;27.85;12.20;;;;;;;-144.47;100.00;53126.22;5028137;28;20112;-64
2023/01/24 04:48:39;;;;;;;30.52;13.05;;;;;;;-144.47;100.00;53146.09;5016858;28;20032;-65
2023/01/24 04:51:04;;;;;;;28.50;13.20;;;;;;;-144.47;100.00;53098.41;5027984;28;20025;-67
2023/01/24 04:53:30;;;;;;;24.90;12.15;;;;;;;-144.47;100.00;53116.28;5028092;28;20745;-66
2023/01/24 04:56:02;;;;;;;25.08;11.93;;;;;;;-144.47;100.00;53118.28;5014226;28;20442;-67
2023/01/24 04:58:27;;;;;;;29.35;12.10;;;;;;;-144.47;100.00;53138.13;5026369;28;20018;-67
2023/01/24 05:00:53;;;;;;;27.70;11.88;;;;;;;-144.47;100.00;53148.06;5029736;28;20032;-63
2023/01/24 05:03:18;;;;;;;26.98;12.43;;;;;;;-144.47;100.00;53161.97;5031133;28;20116;-67
2023/01/24 05:05:48;;;;;;;30.42;12.00;;;;;;;-144.47;100.00;53122.25;5030962;28;20480;-66
2023/01/24 05:08:14;;;;;;;25.52;11.52;;;;;;;-144.47;100.00;53124.22;5032542;28;20022;-65
2023/01/24 05:10:39;;;;;;;27.25;12.27;;;;;;;-144.47;100.00;53142.09;5032986;28;20040;-65
2023/01/24 05:13:04;;;;;;;29.35;12.55;;;;;;;-144.47;100.00;53144.09;5031812;28;20033;-66
2023/01/24 05:15:30;;;;;;;27.35;11.70;;;;;;;-144.47;100.00;53161.97;5032279;28;20059;-67
2023/01/24 05:17:55;;;;;;;26.02;11.85;;;;;;;-144.47;100.00;53138.13;5032599;28;20018;-67
2023/01/24 05:20:21;;;;;;;23.27;11.77;;;;;;;-144.47;100.00;53150.06;5032861;28;20021;-63
2023/01/24 05:22:48;;;;;;;23.00;12.00;;;;;;;-144.47;100.00;53128.22;5032983;28;20052;-69
2023/01/24 05:25:15;;;;;;;32.35;13.25;;;;;;;-144.47;100.00;53140.13;5033081;28;20048;-68
2023/01/24 05:27:41;;;;;;;25.48;11.90;;;;;;;-144.47;100.00;53165.94;5033207;28;20512;-67
2023/01/24 05:30:07;;;;;;;26.90;11.60;;;;;;;-144.47;100.00;53169.91;5032128;28;20017;-72
2023/01/24 05:32:32;;;;;;;25.67;12.25;;;;;;;-144.47;100.00;53118.28;5032476;28;20029;-67
2023/01/24 05:34:58;;;;;;;26.45;12.07;;;;;;;-144.47;100.00;53100.41;5032581;28;20033;-68
2023/01/24 05:37:23;;;;;;;29.77;13.90;;;;;;;-144.47;100.00;53118.28;5032221;28;20079;-64
2023/01/24 05:39:48;;;;;;;25.63;12.68;;;;;;;-144.47;100.00;53126.22;5032723;28;20112;-66
2023/01/24 05:42:14;;;;;;;28.98;12.25;;;;;;;-144.47;100.00;53140.13;5031907;28;20044;-67
2023/01/24 05:44:39;;;;;;;26.40;10.82;;;;;;;-144.47;100.00;53142.09;5030472;28;20025;-67
2023/01/24 05:47:04;;;;;;;24.77;11.88;;;;;;;-144.47;100.00;53138.13;5032139;28;20509;-67
2023/01/24 05:49:30;;;;;;;33.08;14.27;;;;;;;-144.47;100.00;53118.28;5020749;28;20087;-67
2023/01/24 05:51:55;;;;;;;33.03;13.68;;;;;;;-144.47;100.00;53156.00;5033734;28;20029;-70
2023/01/24 05:54:20;;;;;;;31.50;12.38;;;;;;;-144.47;100.00;53146.09;5031356;28;20025;-68
2023/01/24 05:56:46;;;;;;;33.28;12.38;;;;;;;-144.47;100.00;53142.09;5020983;22;20057;-70
2023/01/24 05:59:13;;;;;;;33.25;13.00;;;;;;;-144.47;100.00;53128.22;5001427;28;20093;-68
2023/01/24 06:01:38;;;;;;;28.55;13.77;;;;;;;-144.47;100.00;53142.09;5010462;28;20098;-69
2023/01/24 06:04:04;;;;;;;27.92;13.10;;;;;;;-144.47;100.00;53134.16;5010487;28;20058;-70
2023/01/24 06:06:29;;;;;;;25.50;10.55;;;;;;;-144.47;100.00;53096.41;4997720;28;20037;-69
2023/01/24 06:08:55;;;;;;;35.42;13.45;;;;;;;-144.47;100.00;53116.28;4997253;28;20088;-70
2023/01/24 06:11:23;;;;;;;26.75;12.13;;;;;;;-144.47;100.00;53150.06;4983895;28;20034;-67
2023/01/24 06:13:49;;;;;;;27.10;13.18;;;;;;;-144.47;100.00;53138.13;4995437;28;20040;-69
2023/01/24 06:16:17;;;;;;;29.00;12.35;;;;;;;-144.47;100.00;53142.09;4995884;28;20089;-66
2023/01/24 06:18:43;;;;;;;26.42;11.50;;;;;;;-144.47;100.00;53156.00;4990463;28;20595;-69
2023/01/24 06:21:41;;;;;;;26.58;12.02;;;;;;;-144.47;100.00;53158.00;4991719;28;20085;-69
2023/01/24 06:24:14;;;;;;;28.48;13.57;;;;;;;-144.47;100.00;53118.28;4993121;28;20665;-69
2023/01/24 06:26:40;;;;;;;27.63;12.20;;;;;;;-144.47;100.00;53140.13;4995572;28;20587;-69
2023/01/24 06:29:08;;;;;;;33.13;14.77;;;;;;;-144.47;100.00;53138.13;4990685;28;20117;-67
2023/01/24 06:31:39;;;;;;;24.98;11.50;;;;;;;-144.47;100.00;53126.22;4989834;28;20095;-70
2023/01/24 06:34:04;;;;;;;30.30;13.40;;;;;;;-144.47;100.00;53122.25;4994421;28;20053;-69
2023/01/24 06:36:30;;;;;;;28.27;13.00;;;;;;;-144.47;100.00;53116.28;4995890;28;20022;-69
2023/01/24 06:38:55;;;;;;;31.00;13.60;;;;;;;-144.47;100.00;53161.97;4990916;28;20111;-70
2023/01/24 06:41:21;;;;;;;25.23;12.02;;;;;;;-144.47;100.00;53148.06;4989137;28;20618;-67
2023/01/24 06:43:47;;;;;;;24.80;13.05;;;;;;;-144.47;100.00;53154.03;4989853;28;20057;-69
2023/01/24 06:46:13;;;;;;;26.45;12.68;;;;;;;-144.47;100.00;53144.09;4989305;28;20026;-69
2023/01/24 06:48:42;;;;;;;25.00;13.10;;;;;;;-144.47;100.00;53120.25;4989887;28;20022;-70
2023/01/24 06:51:11;;;;;;;26.60;12.32;;;;;;;-144.47;100.00;53156.00;4990080;28;20038;-68
2023/01/24 06:53:36;;;;;;;29.92;13.85;;;;;;;-144.47;100.00;53140.13;4989760;28;20065;-69
2023/01/24 06:56:01;;;;;;;28.23;12.90;;;;;;;-144.47;100.00;53152.03;4988039;28;20560;-69
2023/01/24 06:58:27;;;;;;;24.80;12.07;;;;;;;-144.47;100.00;53144.09;4988687;28;20026;-66
2023/01/24 07:00:53;;;;;;;28.88;13.68;;;;;;;-144.47;100.00;53132.19;4989564;28;20329;-70
2023/01/24 07:03:18;;;;;;;29.17;12.93;;;;;;;-144.47;100.00;53169.91;4989384;28;20472;-69
2023/01/24 07:05:44;;;;;;;28.92;12.25;;;;;;;-144.47;100.00;53165.94;4988552;28;20057;-69
2023/01/24 07:08:10;;;;;;;31.75;14.32;;;;;;;-144.47;100.00;53156.00;4989166;28;20489;-68
2023/01/24 07:10:35;;;;;;;34.60;13.85;;;;;;;-144.47;100.00;53142.09;4989419;28;20101;-68
2023/01/24 07:13:00;;;;;;;32.05;14.07;;;;;;;-144.47;100.00;53116.28;4989102;28;20030;-69
2023/01/24 07:15:26;;;;;;;36.38;16.60;;;;;;;-144.47;100.00;53130.19;4995537;28;20033;-67
2023/01/24 07:17:52;;;;;;;33.70;15.43;;;;;;;-144.47;100.00;53152.03;4983329;28;20180;-69
2023/01/24 07:20:18;;;;;;;34.83;15.52;;;;;;;-144.47;100.00;53156.00;4994296;28;20052;-69
2023/01/24 07:22:44;;;;;;;31.75;14.93;;;;;;;-144.47;100.00;53134.16;4991010;28;20037;-69
2023/01/24 07:25:19;;;;;;;36.55;15.68;;;;;;;-144.47;100.00;53140.13;4992665;28;20649;-69
2023/01/24 07:27:45;;;;;;;30.90;12.55;;;;;;;-144.47;100.00;53116.28;4994215;28;20111;-69
2023/01/24 07:30:12;;;;;;;28.65;13.02;;;;;;;-144.47;100.00;53160.00;4989095;28;20038;-69
2023/01/24 07:32:38;;;;;;;35.78;16.52;;;;;;;-144.47;100.00;53138.13;4991528;28;20042;-67
2023/01/24 07:35:04;;;;;;;29.02;15.90;;;;;;;-144.47;100.00;53160.00;4990099;28;20150;-69
2023/01/24 07:37:30;;;;;;;34.33;18.15;;;;;;;-144.47;100.00;53122.25;4987455;28;20071;-70
2023/01/24 07:39:55;;;;;;;33.67;16.00;;;;;;;-144.47;100.00;53165.94;4990174;28;20020;-70
2023/01/24 07:42:21;;;;;;;35.22;17.48;;;;;;;-144.47;100.00;53167.94;4983613;28;20487;-68
2023/01/24 07:44:46;;;;;;;28.13;13.20;;;;;;;-144.47;100.00;53158.00;4991754;28;20469;-68
2023/01/24 07:47:11;;;;;;;27.73;13.55;;;;;;;-144.47;100.00;53136.16;4986877;28;20030;-69
2023/01/24 07:49:37;;;;;;;32.88;14.95;;;;;;;-144.47;100.00;53136.16;4988128;28;20166;-67
2023/01/24 07:52:02;;;;;;;34.13;14.27;;;;;;;-144.47;100.00;53116.28;4991756;28;20077;-69
2023/01/24 07:54:27;;;;;;;26.45;13.70;;;;;;;-144.47;100.00;53156.00;4989687;28;20976;-67
2023/01/24 07:56:53;;;;;;;36.95;14.65;;;;;;;-144.47;100.00;53161.97;4986819;28;20451;-68
2023/01/24 07:59:19;;;;;;;27.73;14.25;;;;;;;-144.47;100.00;53128.22;4993194;28;20203;-69
2023/01/24 08:01:44;;;;;;;30.17;12.98;;;;;;;-144.47;100.00;53138.13;5002123;28;20025;-68
2023/01/24 08:04:09;;;;;;;31.58;15.18;;;;;;;-144.47;100.00;53128.22;4995582;28;20403;-68
2023/01/24 08:06:35;;;;;;;27.35;14.75;;;;;;;-144.47;100.00;53138.13;5000978;28;20342;-68
2023/01/24 08:09:00;;;;;;;27.52;12.82;;;;;;;-144.47;100.00;53158.00;4993180;28;20035;-67
2023/01/24 08:11:26;;;;;;;30.70;12.82;;;;;;;-144.47;100.00;53150.06;4989368;28;20030;-67
2023/01/24 08:13:51;;;;;;;28.35;13.98;;;;;;;-144.47;100.00;53154.03;4987245;28;20034;-69
2023/01/24 08:16:17;;;;;;;42.05;16.58;;;;;;;-144.47;100.00;53160.00;4988744;28;20105;-67
2023/01/24 08:18:44;;;;;;;33.35;13.57;;;;;;;-144.47;100.00;53150.06;4986751;28;20026;-67
2023/01/24 08:21:09;;;;;;;32.75;14.95;;;;;;;-144.47;100.00;53136.16;4988518;28;20102;-67
2023/01/24 08:23:35;;;;;;;35.35;16.25;;;;;;;-144.47;100.00;53150.06;4988188;28;20026;-68
2023/01/24 08:26:01;;;;;;;22.23;12.30;;;;;;;-144.47;100.00;53138.13;4989133;28;20472;-68
2023/01/24 08:28:27;;;;;;;36.65;14.07;;;;;;;-144.47;100.00;53140.13;5001325;28;20133;-66
2023/01/24 08:30:53;;;;;;;39.60;16.48;;;;;;;-144.47;100.00;53142.09;4999742;28;20034;-70
2023/01/24 08:33:18;;;;;;;32.05;14.82;;;;;;;-144.47;100.00;53136.16;4995309;28;20026;-69
2023/01/24 08:35:47;;;;;;;36.15;16.23;;;;;;;-144.47;100.00;53160.00;4988022;28;20054;-69
2023/01/24 08:38:14;;;;;;;38.78;15.43;;;;;;;-144.47;100.00;53150.06;4988864;28;20040;-69
2023/01/24 08:40:40;;;;;;;58.15;21.27;;;;;;;-144.47;100.00;53152.03;4989265;28;20487;-67
2023/01/24 08:43:06;;;;;;;78.25;26.38;;;;;;;-144.47;100.00;53158.00;4988371;28;20031;-70
2023/01/24 08:45:31;;;;;;;44.25;16.30;;;;;;;-144.47;100.00;53154.03;4991719;28;20108;-70
2023/01/24 08:47:57;;;;;;;32.00;13.38;;;;;;;-144.47;100.00;53144.09;4988621;28;20030;-66
2023/01/24 08:50:22;;;;;;;31.58;12.57;;;;;;;-144.47;100.00;53171.91;4987449;28;20026;-69
2023/01/24 08:52:48;;;;;;;32.03;12.43;;;;;;;-144.47;100.00;53150.06;4988360;28;20037;-68
2023/01/24 08:55:15;;;;;;;37.65;14.73;;;;;;;-144.47;100.00;53120.25;4982559;28;20030;-69
2023/01/24 08:57:41;;;;;;;33.45;13.98;;;;;;;-144.47;100.00;53158.00;4991110;28;20042;-70
2023/01/24 09:00:07;;;;;;;43.00;15.55;;;;;;;-144.47;100.00;53130.19;4989768;28;20044;-69
2023/01/24 09:02:36;;;;;;;33.60;12.82;;;;;;;-144.47;100.00;53140.13;4988275;28;20054;-71
2023/01/24 09:05:02;;;;;;;51.60;19.25;;;;;;;-144.47;100.00;53158.00;4987024;28;20080;-71
2023/01/24 09:07:28;;;;;;;32.08;11.93;;;;;;;-144.47;100.00;53136.16;4989193;28;20042;-69
2023/01/24 09:09:53;;;;;;;37.13;15.27;;;;;;;-144.47;100.00;53118.28;4987549;28;20109;-70
2023/01/24 09:12:18;;;;;;;37.92;16.40;;;;;;;-144.47;100.00;53114.31;4987868;28;20034;-69
2023/01/24 09:14:44;;;;;;;36.35;15.57;;;;;;;-144.47;100.00;53138.13;4974277;28;20027;-69
2023/01/24 09:17:09;;;;;;;40.33;16.80;;;;;;;-144.47;100.00;53126.22;4988282;28;20481;-69
2023/01/24 09:19:35;;;;;;;44.13;17.23;;;;;;;-144.47;100.00;53116.28;4988199;28;20050;-69
2023/01/24 09:22:00;;;;;;;33.63;12.75;;;;;;;-144.47;100.00;53132.19;4988425;28;20026;-68
2023/01/24 09:24:25;;;;;;;40.05;14.35;;;;;;;-144.47;100.00;53160.00;4988152;28;20820;-68
2023/01/24 09:26:51;;;;;;;30.45;14.15;;;;;;;-144.47;100.00;53130.19;4988339;28;20110;-70
2023/01/24 09:29:16;;;;;;;30.60;12.35;;;;;;;-144.47;100.00;53126.22;4986311;28;20109;-69
2023/01/24 09:31:42;;;;;;;33.67;14.18;;;;;;;-144.47;100.00;53126.22;4999202;28;20208;-70
2023/01/24 09:34:07;;;;;;;42.97;14.85;;;;;;;-144.47;100.00;53130.19;4988729;28;20493;-71
2023/01/24 09:36:33;;;;;;;45.53;17.45;;;;;;;-144.47;100.00;53138.13;4988057;28;20030;-69
2023/01/24 09:38:58;;;;;;;35.53;13.30;;;;;;;-144.47;100.00;53142.09;4988177;28;20023;-69
2023/01/24 09:41:45;;;;;;;31.17;12.55;;;;;;;-144.47;100.00;53140.13;4988137;28;20117;-69
2023/01/24 09:44:20;;;;;;;32.33;13.63;;;;;;;-144.47;100.00;53138.13;4988318;28;20030;-67
2023/01/24 09:46:50;;;;;;;33.78;13.32;;;;;;;-144.47;100.00;53128.22;4990190;28;20034;-69
2023/01/24 09:49:34;;;;;;;26.73;10.85;;;;;;;-144.47;100.00;53152.03;4991219;28;20092;-70
2023/01/24 09:52:03;;;;;;;29.75;11.38;;;;;;;-144.47;100.00;53142.09;4991834;28;20113;-71
2023/01/24 09:54:56;;;;;;;28.70;12.77;;;;;;;-144.47;100.00;53140.13;4989519;28;20041;-69
2023/01/24 09:57:26;;;;;;;25.98;11.20;;;;;;;-144.47;100.00;53126.22;4995497;28;20064;-71
2023/01/24 09:59:57;;;;;;;25.17;12.18;;;;;;;-144.47;100.00;53179.84;4992223;28;20023;-70
2023/01/24 10:02:27;;;;;;;31.67;11.90;;;;;;;-144.47;100.00;53158.00;4992866;28;20392;-69
2023/01/24 10:04:53;;;;;;;34.67;13.20;;;;;;;-144.47;99.90;53118.28;4992873;28;20030;-71
2023/01/24 10:07:33;;;;;;;33.92;12.60;;;;;;;-144.47;99.90;53142.09;4993317;28;20045;-69
2023/01/24 10:10:01;;;;;;;30.25;11.60;;;;;;;-144.47;99.98;53146.09;5002717;28;20034;-68
2023/01/24 10:12:37;;;;;;;31.63;12.15;;;;;;;-144.47;99.94;53130.19;4990508;28;20109;-69
2023/01/24 10:15:05;;;;;;;28.42;12.32;;;;;;;-144.47;99.87;53163.97;4969929;28;20133;-69
2023/01/24 10:17:43;;;;;;;23.17;11.57;;;;;;;-144.47;99.72;53148.06;4989474;28;20026;-67
2023/01/24 10:20:26;;;;;;;33.83;12.90;;;;;;;-144.47;99.22;53148.06;4989652;28;20570;-68
2023/01/24 10:23:20;;;;;;;35.92;11.95;;;;;;;-144.47;99.13;53156.00;4991669;28;20092;-69
2023/01/24 10:26:05;;;;;;;27.40;12.32;;;;;;;-144.47;99.25;53114.31;4988919;28;20034;-70
2023/01/24 10:28:40;;;;;;;27.90;10.75;;;;;;;-144.47;99.18;53158.00;4987358;28;20034;-70
2023/01/24 10:31:14;;;;;;;24.98;10.73;;;;;;;-144.47;99.06;53132.19;5002232;28;21410;-68
2023/01/24 10:33:53;;;;;;;33.50;11.52;;;;;;;-144.47;99.05;53142.09;4992785;28;20031;-71
2023/01/24 10:36:57;;;;;;;34.85;13.20;;;;;;;-144.47;98.55;53116.28;4991301;28;20015;-68
2023/01/24 10:39:23;;;;;;;33.22;11.80;;;;;;;-144.47;98.86;53146.09;4991888;28;20045;-69
2023/01/24 10:41:49;;;;;;;30.75;12.77;;;;;;;-144.47;98.72;53138.13;4991590;28;20142;-69
2023/01/24 10:44:28;;;;;;;36.17;14.02;;;;;;;-144.47;98.27;53106.34;4992165;28;20476;-69
2023/01/24 10:47:09;;;;;;;32.13;11.95;;;;;;;-144.47;98.48;53110.31;4991253;28;20108;-70
2023/01/24 10:49:37;;;;;;;30.73;12.57;;;;;;;-144.47;98.50;53150.06;4991173;28;20026;-67
2023/01/24 10:52:10;;;;;;;34.60;12.90;;;;;;;-144.47;98.65;53156.00;4989940;28;20038;-69
2023/01/24 10:54:47;;;;;;;25.80;13.00;;;;;;;-144.47;98.42;53118.28;4990643;28;20073;-69
2023/01/24 10:57:39;;;;;;;31.58;11.93;;;;;;;-144.47;98.41;53130.19;5001152;28;20060;-70
2023/01/24 11:00:40;;;;;;;38.08;14.82;;;;;;;-144.47;98.43;53096.41;4979183;28;20117;-70
2023/01/24 11:03:23;;;;;;;41.50;13.43;;;;;;;-144.47;98.12;53144.09;4990295;28;20057;-68
2023/01/24 11:05:51;;;;;;;36.85;13.85;;;;;;;-144.47;98.11;53158.00;4990080;28;20506;-69
2023/01/24 11:08:23;;;;;;;80.38;33.20;;;;;;;-144.47;98.28;53144.09;4996998;28;20036;-70
2023/01/24 11:10:54;;;;;;;28.95;13.15;;;;;;;-144.47;97.97;53110.31;4992319;28;20046;-68
2023/01/24 11:13:37;;;;;;;29.52;12.75;;;;;;;-144.47;97.92;53118.28;4990287;28;20030;-69
2023/01/24 11:16:18;;;;;;;34.47;13.30;;;;;;;-144.47;98.11;53124.22;4990719;28;20619;-68
2023/01/24 11:18:51;;;;;;;33.42;12.13;;;;;;;-144.47;98.46;53136.16;4989870;28;20493;-69
2023/01/24 11:21:19;;;;;;;28.25;12.48;;;;;;;-144.47;98.74;53142.09;4991322;28;20049;-67
2023/01/24 11:23:45;;;;;;;30.00;12.82;;;;;;;-144.47;98.20;53118.28;4994867;28;20032;-69
2023/01/24 11:26:25;;;;;;;30.88;12.00;;;;;;;-144.47;98.40;53142.09;4991647;28;20060;-69
2023/01/24 11:29:00;;;;;;;29.50;11.90;;;;;;;-144.47;98.27;53124.22;4988961;28;20060;-68
2023/01/24 11:31:42;;;;;;;35.67;12.90;;;;;;;-144.47;98.22;53146.09;4997335;28;20065;-69
2023/01/24 11:34:42;;;;;;;33.58;12.23;;;;;;;-144.47;98.24;53136.16;4991033;28;20026;-68